Time;durP1;ratioP1;P1;durP2;ratioP2;P2;SDS_P1;SDS_P2;PMS_P1;PMS_P2;Temp;Humidity;BMP_temperature;BMP_pressure;BME280_temperature;BME280_humidity;BME280_pressure;Samples;Min_cycle;Max_cycle;Signal;HPM_P1;HPM_P2
2022/02/27 00:02:12;;;;;;;7.60;2.72;;;9.70;99.90;;;;;;4972402;28;20158;-58
2022/02/27 00:04:40;;;;;;;4.07;2.15;;;9.70;99.90;;;;;;4956367;28;20481;-58
2022/02/27 00:07:08;;;;;;;5.53;2.53;;;9.70;99.90;;;;;;4973292;28;20093;-59
2022/02/27 00:09:36;;;;;;;4.72;2.03;;;9.80;99.90;;;;;;4972209;28;20047;-58
2022/02/27 00:12:04;;;;;;;3.65;2.08;;;9.90;99.90;;;;;;4972796;28;20066;-59
2022/02/27 00:14:31;;;;;;;3.03;1.73;;;9.80;99.90;;;;;;4973418;28;20045;-59
2022/02/27 00:16:59;;;;;;;6.00;2.70;;;9.70;99.90;;;;;;4973641;28;20055;-58
2022/02/27 00:19:27;;;;;;;4.82;1.70;;;9.70;99.90;;;;;;4956462;28;20105;-59
2022/02/27 00:21:54;;;;;;;8.02;2.15;;;9.80;99.90;;;;;;4972146;28;20047;-59
2022/02/27 00:24:22;;;;;;;5.13;2.35;;;9.70;99.90;;;;;;4973392;28;20106;-59
2022/02/27 00:26:49;;;;;;;5.07;2.63;;;9.80;99.90;;;;;;4972307;28;20039;-59
2022/02/27 00:29:17;;;;;;;6.57;3.08;;;9.90;99.90;;;;;;4973308;28;20137;-58
2022/02/27 00:31:44;;;;;;;12.35;7.40;;;9.90;99.90;;;;;;4973410;28;20039;-58
2022/02/27 00:34:12;;;;;;;18.15;8.02;;;9.90;99.90;;;;;;4973750;28;20080;-58
2022/02/27 00:36:40;;;;;;;12.77;6.80;;;9.80;99.90;;;;;;4972201;28;20042;-59
2022/02/27 00:39:07;;;;;;;16.08;7.85;;;9.80;99.90;;;;;;4972517;28;20485;-59
2022/02/27 00:41:38;;;;;;;11.23;5.78;;;9.70;99.90;;;;;;4973804;28;20079;-59
2022/02/27 00:44:06;;;;;;;7.90;5.78;;;9.50;99.90;;;;;;4930126;28;1337759;-59
2022/02/27 00:46:33;;;;;;;10.45;5.22;;;9.30;99.90;;;;;;4976488;28;20053;-59
2022/02/27 00:49:02;;;;;;;11.07;6.13;;;9.10;99.90;;;;;;4976596;28;20062;-58
2022/02/27 00:51:31;;;;;;;11.27;6.68;;;9.10;99.90;;;;;;4977542;28;20498;-58
2022/02/27 00:54:02;;;;;;;10.07;4.32;;;9.10;99.90;;;;;;4977742;28;20051;-59
2022/02/27 00:56:30;;;;;;;15.05;7.47;;;9.00;99.90;;;;;;4977584;28;20078;-59
2022/02/27 00:58:57;;;;;;;15.82;8.38;;;9.00;99.90;;;;;;4977462;28;20050;-59
2022/02/27 01:01:25;;;;;;;28.33;16.25;;;8.90;99.90;;;;;;4976245;28;20093;-59
2022/02/27 01:03:53;;;;;;;22.05;11.82;;;9.10;99.90;;;;;;4976562;28;20413;-59
2022/02/27 01:06:23;;;;;;;39.08;20.25;;;9.10;99.90;;;;;;4977525;28;20512;-59
2022/02/27 01:08:51;;;;;;;29.10;14.02;;;9.10;99.90;;;;;;4976176;28;20046;-59
2022/02/27 01:11:18;;;;;;;13.38;6.75;;;9.10;99.90;;;;;;4976117;28;20509;-58
2022/02/27 01:13:46;;;;;;;16.98;7.82;;;9.30;99.90;;;;;;4977113;28;20130;-59
2022/02/27 01:16:14;;;;;;;13.10;4.57;;;9.30;99.90;;;;;;4960440;28;20480;-58
2022/02/27 01:18:42;;;;;;;8.20;3.70;;;9.20;99.90;;;;;;4975836;28;20486;-58
2022/02/27 01:21:09;;;;;;;4.43;2.47;;;9.20;99.90;;;;;;4976060;28;20089;-58
2022/02/27 01:23:39;;;;;;;4.25;1.60;;;9.20;99.90;;;;;;4976043;28;20574;-58
2022/02/27 01:26:07;;;;;;;1.77;1.60;;;9.30;99.90;;;;;;4975690;28;20053;-58
2022/02/27 01:28:36;;;;;;;2.80;1.60;;;9.40;99.90;;;;;;4944090;28;20047;-58
2022/02/27 01:31:07;;;;;;;3.28;1.35;;;9.40;99.90;;;;;;4975699;28;20043;-58
2022/02/27 01:33:38;;;;;;;4.75;2.05;;;9.40;99.90;;;;;;4977052;28;20504;-58
2022/02/27 01:36:07;;;;;;;4.47;2.35;;;9.50;99.90;;;;;;4975968;28;20498;-58
2022/02/27 01:38:35;;;;;;;5.60;2.38;;;9.60;99.90;;;;;;4976681;28;20097;-58
2022/02/27 01:41:03;;;;;;;5.18;3.10;;;9.60;99.90;;;;;;4975808;28;20051;-58
2022/02/27 01:43:31;;;;;;;4.95;2.30;;;9.60;99.90;;;;;;4976780;28;20046;-58
2022/02/27 01:45:58;;;;;;;5.65;2.20;;;9.60;99.90;;;;;;4975417;28;20035;-58
2022/02/27 01:48:26;;;;;;;4.13;2.83;;;9.70;99.90;;;;;;4975287;28;20138;-58
2022/02/27 01:50:55;;;;;;;4.85;2.50;;;9.70;99.90;;;;;;4975632;28;20043;-58
2022/02/27 01:53:22;;;;;;;5.78;2.85;;;9.70;99.90;;;;;;4974685;28;20046;-58
2022/02/27 01:55:50;;;;;;;9.68;3.17;;;9.80;99.90;;;;;;4975202;28;20035;-58
2022/02/27 01:58:18;;;;;;;6.22;2.53;;;9.80;99.90;;;;;;4975135;28;20461;-58
2022/02/27 02:00:46;;;;;;;5.75;2.35;;;9.80;99.90;;;;;;4975574;28;20049;-58
2022/02/27 02:03:13;;;;;;;5.45;2.65;;;9.80;99.90;;;;;;4975208;28;20101;-57
2022/02/27 02:05:43;;;;;;;8.30;3.50;;;9.80;99.90;;;;;;4976239;28;20101;-57
2022/02/27 02:08:10;;;;;;;9.48;2.67;;;9.70;99.90;;;;;;4975132;28;20039;-58
2022/02/27 02:10:40;;;;;;;4.88;2.38;;;9.70;99.90;;;;;;4975030;28;20045;-57
2022/02/27 02:13:09;;;;;;;5.05;2.70;;;9.70;99.90;;;;;;4975059;28;20051;-57
2022/02/27 02:15:37;;;;;;;4.53;2.28;;;9.70;99.90;;;;;;4974943;28;20292;-57
2022/02/27 02:18:09;;;;;;;3.50;2.10;;;9.70;99.90;;;;;;4974458;28;20446;-58
2022/02/27 02:20:38;;;;;;;3.00;2.08;;;9.70;99.90;;;;;;4974868;28;20113;-58
2022/02/27 02:23:06;;;;;;;5.63;2.17;;;9.80;99.90;;;;;;4974824;28;20130;-57
2022/02/27 02:25:33;;;;;;;4.35;2.17;;;9.70;99.90;;;;;;4974733;28;20406;-58
2022/02/27 02:28:01;;;;;;;2.92;2.25;;;9.80;99.90;;;;;;4974708;28;20047;-57
2022/02/27 02:30:28;;;;;;;3.70;1.83;;;9.80;99.90;;;;;;4974822;28;20039;-58
2022/02/27 02:32:58;;;;;;;4.50;2.30;;;9.80;99.90;;;;;;4975841;28;20089;-58
2022/02/27 02:35:27;;;;;;;7.75;2.95;;;9.80;99.90;;;;;;4975681;28;20043;-58
2022/02/27 02:37:55;;;;;;;6.90;2.40;;;9.80;99.90;;;;;;4974481;28;20050;-57
2022/02/27 02:40:25;;;;;;;4.57;2.25;;;9.80;99.90;;;;;;4958665;28;20163;-57
2022/02/27 02:42:55;;;;;;;3.88;2.00;;;9.70;99.90;;;;;;4942659;28;20057;-58
2022/02/27 02:45:23;;;;;;;5.25;2.40;;;9.70;99.90;;;;;;4974659;28;20047;-57
2022/02/27 02:47:51;;;;;;;6.85;3.25;;;9.70;99.90;;;;;;4974258;28;20035;-57
2022/02/27 02:50:22;;;;;;;6.57;2.60;;;9.70;99.90;;;;;;4974505;28;20043;-57
2022/02/27 02:52:51;;;;;;;4.07;2.28;;;9.80;99.90;;;;;;4974183;28;20098;-57
2022/02/27 02:55:19;;;;;;;5.53;3.60;;;9.80;99.90;;;;;;4974257;28;20105;-57
2022/02/27 02:57:46;;;;;;;8.45;3.75;;;9.80;99.90;;;;;;4974344;28;20117;-58
2022/02/27 03:00:14;;;;;;;4.97;2.83;;;9.80;99.90;;;;;;4958280;28;20219;-58
2022/02/27 03:02:42;;;;;;;4.63;2.97;;;9.70;99.90;;;;;;4974324;28;20051;-58
2022/02/27 03:05:10;;;;;;;7.32;2.65;;;9.70;99.90;;;;;;4973956;28;20049;-58
2022/02/27 03:07:39;;;;;;;7.35;2.90;;;9.70;99.90;;;;;;4975069;28;20043;-57
2022/02/27 03:10:08;;;;;;;5.85;2.70;;;9.70;99.90;;;;;;4974072;28;20138;-57
2022/02/27 03:12:37;;;;;;;3.83;2.20;;;9.70;99.90;;;;;;4975287;28;20042;-57
2022/02/27 03:15:07;;;;;;;3.42;2.03;;;9.70;99.90;;;;;;4974134;28;20098;-57
2022/02/27 03:17:35;;;;;;;7.43;1.90;;;9.70;99.90;;;;;;4973735;28;20054;-58
2022/02/27 03:20:04;;;;;;;5.55;1.80;;;9.80;99.90;;;;;;4974967;28;20405;-58
2022/02/27 03:22:32;;;;;;;3.50;2.28;;;9.80;99.90;;;;;;4973881;28;20054;-58
2022/02/27 03:24:59;;;;;;;6.03;2.33;;;9.90;99.90;;;;;;4974874;28;20050;-57
2022/02/27 03:27:27;;;;;;;4.03;1.80;;;9.80;99.90;;;;;;4989986;28;20102;-58
2022/02/27 03:29:54;;;;;;;4.50;2.45;;;9.50;99.90;;;;;;4975266;28;20058;-58
2022/02/27 03:32:22;;;;;;;2.67;1.70;;;9.40;99.90;;;;;;4973763;28;20137;-57
2022/02/27 03:34:49;;;;;;;4.88;2.00;;;9.20;99.90;;;;;;4973562;28;20074;-58
2022/02/27 03:37:18;;;;;;;4.22;2.65;;;9.20;99.90;;;;;;4973827;28;20062;-57
2022/02/27 03:39:45;;;;;;;7.00;3.10;;;9.10;99.90;;;;;;4975119;28;20393;-57
2022/02/27 03:42:13;;;;;;;9.45;4.40;;;9.10;99.90;;;;;;4974726;28;20063;-57
2022/02/27 03:44:40;;;;;;;7.25;4.13;;;9.10;99.90;;;;;;4973634;28;20050;-58
2022/02/27 03:47:08;;;;;;;8.38;4.85;;;9.20;99.90;;;;;;4973463;28;20043;-58
2022/02/27 03:49:36;;;;;;;13.27;6.13;;;9.30;99.90;;;;;;4974685;28;20130;-57
2022/02/27 03:52:06;;;;;;;7.55;5.72;;;9.40;99.90;;;;;;4974871;28;20129;-57
2022/02/27 03:54:33;;;;;;;5.88;3.60;;;9.50;99.90;;;;;;4975090;28;20134;-57
2022/02/27 03:57:01;;;;;;;7.65;2.45;;;9.50;99.90;;;;;;4974739;28;20118;-57
2022/02/27 03:59:28;;;;;;;6.85;2.65;;;9.60;99.90;;;;;;4974682;28;20572;-57
2022/02/27 04:01:56;;;;;;;4.13;2.45;;;9.60;99.90;;;;;;4974820;28;20445;-57
2022/02/27 04:04:23;;;;;;;3.20;2.00;;;9.60;99.90;;;;;;4973352;28;20138;-57
2022/02/27 04:06:51;;;;;;;2.03;1.42;;;9.60;99.90;;;;;;4974712;28;20051;-58
2022/02/27 04:09:22;;;;;;;3.13;1.50;;;9.60;99.90;;;;;;4974611;28;20046;-58
2022/02/27 04:11:49;;;;;;;3.15;1.30;;;9.60;99.90;;;;;;4973431;28;20129;-58
2022/02/27 04:14:17;;;;;;;2.85;1.50;;;9.60;99.90;;;;;;4974644;28;20045;-57
2022/02/27 04:16:44;;;;;;;3.58;1.75;;;9.70;99.90;;;;;;4975644;28;20070;-58
2022/02/27 04:19:12;;;;;;;2.42;1.20;;;9.70;99.90;;;;;;4977361;28;20047;-57
2022/02/27 04:21:39;;;;;;;3.08;1.20;;;9.70;99.90;;;;;;4977164;28;20122;-58
2022/02/27 04:24:07;;;;;;;4.25;1.50;;;9.70;99.90;;;;;;4976904;28;20035;-57
2022/02/27 04:26:34;;;;;;;3.72;1.90;;;9.70;99.90;;;;;;4978019;28;20039;-57
2022/02/27 04:29:02;;;;;;;1.98;1.55;;;9.80;99.90;;;;;;4976750;28;20105;-57
2022/02/27 04:31:30;;;;;;;3.35;1.52;;;9.80;99.90;;;;;;4976717;28;20409;-58
2022/02/27 04:33:57;;;;;;;2.60;1.70;;;9.90;99.90;;;;;;4977225;28;20073;-58
2022/02/27 04:36:27;;;;;;;4.78;1.65;;;9.90;99.90;;;;;;4976816;28;20043;-58
2022/02/27 04:38:55;;;;;;;2.97;1.42;;;9.90;99.90;;;;;;4977877;28;20043;-58
2022/02/27 04:41:25;;;;;;;5.10;1.80;;;10.00;99.90;;;;;;4978020;28;20035;-58
2022/02/27 04:43:52;;;;;;;2.83;1.60;;;10.00;99.90;;;;;;4976657;28;20054;-57
2022/02/27 04:46:23;;;;;;;4.40;1.85;;;10.00;99.90;;;;;;4976755;28;20047;-57
2022/02/27 04:48:50;;;;;;;3.22;1.17;;;10.00;99.90;;;;;;4977541;28;20063;-57
2022/02/27 04:51:18;;;;;;;3.40;1.52;;;9.90;99.90;;;;;;4960742;28;20105;-58
2022/02/27 04:53:47;;;;;;;5.00;1.40;;;9.70;99.90;;;;;;4976492;28;20055;-57
2022/02/27 04:56:14;;;;;;;2.80;1.50;;;9.70;99.90;;;;;;4976452;28;20051;-57
2022/02/27 04:58:42;;;;;;;1.45;0.70;;;9.60;99.90;;;;;;4977472;28;20405;-58
2022/02/27 05:01:10;;;;;;;1.02;0.70;;;9.40;99.90;;;;;;4977658;28;20047;-57
2022/02/27 05:03:37;;;;;;;0.73;0.57;;;9.40;99.90;;;;;;4976291;28;20042;-57
2022/02/27 05:06:05;;;;;;;1.48;0.88;;;9.40;99.90;;;;;;4977475;28;20043;-58
2022/02/27 05:08:32;;;;;;;1.95;0.60;;;9.50;99.90;;;;;;4977298;28;20493;-57
2022/02/27 05:11:00;;;;;;;2.03;0.70;;;9.50;99.90;;;;;;4977288;28;20507;-56
2022/02/27 05:13:30;;;;;;;0.60;0.60;;;9.60;99.90;;;;;;4977200;28;20125;-57
2022/02/27 05:15:58;;;;;;;0.88;0.43;;;9.60;99.90;;;;;;4976143;28;20494;-57
2022/02/27 05:18:25;;;;;;;0.70;0.50;;;9.60;99.90;;;;;;4977160;28;20098;-58
2022/02/27 05:20:53;;;;;;;4.68;0.75;;;9.70;99.90;;;;;;4977115;28;20505;-56
2022/02/27 05:23:20;;;;;;;1.40;0.80;;;9.70;99.90;;;;;;4960004;28;20469;-57
2022/02/27 05:25:48;;;;;;;0.93;0.57;;;9.70;99.90;;;;;;4977061;28;20046;-57
2022/02/27 05:28:15;;;;;;;1.27;0.65;;;9.70;99.90;;;;;;4975577;28;20035;-57
2022/02/27 05:30:43;;;;;;;2.10;0.50;;;9.70;99.90;;;;;;4977081;28;20051;-57
2022/02/27 05:33:14;;;;;;;1.80;0.80;;;9.80;99.90;;;;;;4976281;28;20074;-58
2022/02/27 05:35:42;;;;;;;1.83;0.80;;;9.70;99.90;;;;;;4976857;28;20046;-55
2022/02/27 05:38:09;;;;;;;1.40;1.00;;;9.70;99.90;;;;;;4976755;28;20039;-58
2022/02/27 05:40:37;;;;;;;1.00;0.68;;;9.70;99.90;;;;;;4976732;28;20042;-58
2022/02/27 05:43:05;;;;;;;1.33;0.80;;;9.70;99.90;;;;;;4975663;28;20061;-57
2022/02/27 05:45:32;;;;;;;2.00;1.35;;;9.70;99.90;;;;;;4975675;28;20105;-57
2022/02/27 05:48:00;;;;;;;2.00;1.00;;;9.60;99.90;;;;;;4976888;28;20393;-57
2022/02/27 05:50:29;;;;;;;2.28;1.20;;;9.60;99.90;;;;;;4976656;28;20043;-57
2022/02/27 05:52:56;;;;;;;1.33;1.10;;;9.40;99.90;;;;;;4976535;28;20042;-57
2022/02/27 05:55:23;;;;;;;1.05;0.73;;;9.40;99.90;;;;;;4976387;28;20038;-58
2022/02/27 05:57:53;;;;;;;0.90;0.75;;;9.40;99.90;;;;;;4975384;28;20081;-57
2022/02/27 06:00:21;;;;;;;1.67;1.10;;;9.30;99.90;;;;;;4975145;28;20041;-57
2022/02/27 06:02:49;;;;;;;0.85;0.55;;;9.30;99.90;;;;;;4976355;28;20070;-57
2022/02/27 06:05:16;;;;;;;1.42;0.98;;;9.00;99.90;;;;;;4975622;28;20047;-57
2022/02/27 06:07:44;;;;;;;0.60;0.60;;;9.00;99.90;;;;;;4976148;28;20085;-58
2022/02/27 06:10:12;;;;;;;0.85;0.50;;;9.00;99.90;;;;;;4975173;28;20054;-57
2022/02/27 06:12:48;;;;;;;1.65;0.73;;;8.90;99.90;;;;;;4975397;28;20043;-57
2022/02/27 06:15:17;;;;;;;0.50;0.50;;;8.90;99.90;;;;;;4975189;28;20437;-57
2022/02/27 06:17:45;;;;;;;1.25;0.80;;;8.90;99.90;;;;;;4976075;28;20133;-58
2022/02/27 06:20:12;;;;;;;1.00;0.65;;;8.80;99.90;;;;;;4975018;28;20062;-58
2022/02/27 06:22:45;;;;;;;1.38;0.70;;;8.90;99.90;;;;;;4975839;28;20046;-57
2022/02/27 06:25:15;;;;;;;3.05;1.33;;;9.00;99.90;;;;;;4974763;28;20145;-58
2022/02/27 06:27:44;;;;;;;0.98;0.70;;;9.00;99.90;;;;;;4975884;28;20405;-56
2022/02/27 06:30:16;;;;;;;0.50;0.50;;;9.10;99.90;;;;;;4975066;28;20150;-57
2022/02/27 06:32:47;;;;;;;0.80;0.55;;;9.10;99.90;;;;;;4975847;28;20093;-57
2022/02/27 06:35:16;;;;;;;1.02;0.50;;;9.00;99.90;;;;;;4974608;28;20482;-57
2022/02/27 06:37:44;;;;;;;1.27;0.70;;;9.10;99.90;;;;;;4975816;28;20047;-57
2022/02/27 06:40:12;;;;;;;2.10;0.73;;;9.20;99.90;;;;;;4975261;28;20446;-57
2022/02/27 06:42:40;;;;;;;1.33;0.90;;;9.40;99.90;;;;;;4942734;28;20042;-57
2022/02/27 06:45:10;;;;;;;1.40;0.70;;;9.90;99.90;;;;;;4975733;28;20160;-58
2022/02/27 06:47:38;;;;;;;1.58;0.98;;;10.30;99.90;;;;;;4974313;28;20517;-58
2022/02/27 06:50:08;;;;;;;1.00;0.90;;;10.40;99.90;;;;;;4974184;28;20442;-57
2022/02/27 06:52:36;;;;;;;2.60;1.58;;;10.50;99.90;;;;;;4974732;28;20038;-57
2022/02/27 06:55:04;;;;;;;3.63;1.52;;;10.50;99.90;;;;;;4974389;28;20053;-57
2022/02/27 06:57:31;;;;;;;2.40;0.85;;;10.80;99.90;;;;;;4974149;28;20061;-58
2022/02/27 06:59:59;;;;;;;3.30;2.10;;;10.50;99.90;;;;;;4974397;28;20141;-57
2022/02/27 07:02:27;;;;;;;5.10;2.30;;;10.40;99.90;;;;;;4974020;28;20050;-57
2022/02/27 07:04:54;;;;;;;2.42;1.42;;;10.30;99.90;;;;;;4974027;28;20058;-58
2022/02/27 07:07:22;;;;;;;3.72;2.35;;;10.00;99.90;;;;;;4973961;28;20509;-57
2022/02/27 07:09:50;;;;;;;3.17;1.40;;;9.80;99.90;;;;;;4958189;28;20113;-57
2022/02/27 07:12:17;;;;;;;2.03;0.90;;;9.80;99.90;;;;;;4975492;28;20504;-57
2022/02/27 07:14:45;;;;;;;0.50;0.50;;;9.80;99.90;;;;;;4973790;28;20577;-58
2022/02/27 07:17:15;;;;;;;0.70;0.70;;;9.80;99.90;;;;;;4974445;28;20493;-57
2022/02/27 07:19:43;;;;;;;1.90;0.70;;;10.00;99.90;;;;;;4975047;28;20059;-57
2022/02/27 07:22:11;;;;;;;0.70;0.70;;;10.10;99.90;;;;;;4975121;28;20398;-57
2022/02/27 07:24:38;;;;;;;0.88;0.50;;;10.20;99.90;;;;;;4942131;28;20042;-58
2022/02/27 07:27:06;;;;;;;2.38;0.57;;;10.30;99.90;;;;;;4972685;28;20055;-58
2022/02/27 07:29:34;;;;;;;1.55;0.65;;;10.40;99.90;;;;;;4973945;28;20046;-57
2022/02/27 07:32:01;;;;;;;0.50;0.50;;;10.60;99.90;;;;;;4973423;28;20031;-58
2022/02/27 07:34:29;;;;;;;0.85;0.60;;;10.70;99.90;;;;;;4974638;28;20481;-58
2022/02/27 07:36:57;;;;;;;0.30;0.30;;;10.70;99.90;;;;;;4973539;28;20097;-57
2022/02/27 07:39:27;;;;;;;0.70;0.70;;;10.70;99.90;;;;;;4973603;28;20055;-57
2022/02/27 07:41:54;;;;;;;1.27;0.70;;;10.70;99.90;;;;;;4989395;28;20046;-57
2022/02/27 07:44:23;;;;;;;1.75;1.15;;;10.60;99.90;;;;;;4972751;28;20126;-57
2022/02/27 07:46:51;;;;;;;2.10;1.30;;;10.60;99.90;;;;;;4974206;28;20054;-58
2022/02/27 07:49:18;;;;;;;3.25;1.30;;;10.50;99.90;;;;;;4957220;28;20049;-57
2022/02/27 07:51:48;;;;;;;2.63;1.35;;;10.50;99.90;;;;;;4976967;28;20038;-57
2022/02/27 07:54:16;;;;;;;2.10;1.13;;;10.50;99.90;;;;;;4978429;28;20047;-57
2022/02/27 07:56:44;;;;;;;2.05;1.50;;;10.50;99.90;;;;;;4977509;28;20054;-57
2022/02/27 07:59:12;;;;;;;2.33;1.50;;;10.50;99.90;;;;;;4977731;28;20053;-58
2022/02/27 08:01:41;;;;;;;3.60;1.70;;;10.60;99.90;;;;;;4976951;28;20062;-57
2022/02/27 08:04:09;;;;;;;4.72;1.67;;;10.90;99.90;;;;;;4977122;28;20050;-57
2022/02/27 08:06:37;;;;;;;1.40;0.90;;;11.40;99.90;;;;;;4978233;28;20494;-57
2022/02/27 08:09:05;;;;;;;1.42;1.00;;;11.90;99.90;;;;;;4978202;28;20042;-58
2022/02/27 08:11:33;;;;;;;1.83;1.10;;;12.50;99.90;;;;;;4977212;28;20493;-58
2022/02/27 08:14:01;;;;;;;1.30;0.95;;;13.10;99.90;;;;;;4977682;28;20057;-58
2022/02/27 08:16:28;;;;;;;2.28;0.75;;;13.50;99.90;;;;;;4976649;28;20077;-58
2022/02/27 08:18:56;;;;;;;1.85;1.10;;;13.90;99.30;;;;;;4978064;28;20058;-58
2022/02/27 08:21:24;;;;;;;1.55;1.00;;;14.30;98.60;;;;;;4960917;28;20477;-58
2022/02/27 08:23:51;;;;;;;3.00;1.65;;;14.60;98.00;;;;;;4977955;28;20524;-58
2022/02/27 08:26:19;;;;;;;3.10;1.42;;;14.80;97.80;;;;;;4977890;28;20046;-58
2022/02/27 08:28:47;;;;;;;2.95;1.30;;;14.80;97.20;;;;;;4976571;28;20077;-58
2022/02/27 08:31:15;;;;;;;3.08;2.10;;;14.60;96.90;;;;;;4977498;28;20039;-58
2022/02/27 08:33:42;;;;;;;4.53;2.75;;;14.40;96.90;;;;;;4977579;28;20055;-58
2022/02/27 08:36:11;;;;;;;3.88;1.98;;;14.40;96.90;;;;;;4976731;28;20068;-58
2022/02/27 08:38:38;;;;;;;2.95;1.90;;;14.50;96.80;;;;;;4976639;28;20057;-58
2022/02/27 08:41:06;;;;;;;4.03;1.75;;;14.70;96.30;;;;;;4976434;28;20549;-58
2022/02/27 08:43:34;;;;;;;3.45;2.05;;;14.90;96.10;;;;;;4977591;28;20047;-58
2022/02/27 08:46:01;;;;;;;3.33;1.50;;;15.10;96.10;;;;;;4976613;28;20035;-58
2022/02/27 08:48:30;;;;;;;2.88;1.67;;;15.40;95.50;;;;;;4977248;28;20509;-58
2022/02/27 08:50:58;;;;;;;2.03;1.10;;;15.60;94.80;;;;;;4976315;28;20050;-58
2022/02/27 08:53:25;;;;;;;1.00;0.90;;;15.80;94.50;;;;;;4977345;28;20137;-58
2022/02/27 08:55:53;;;;;;;2.65;1.30;;;15.90;94.30;;;;;;4977549;28;20054;-58
2022/02/27 08:58:20;;;;;;;1.88;1.30;;;16.10;94.10;;;;;;4977527;28;20053;-58
2022/02/27 09:00:48;;;;;;;2.35;1.17;;;16.20;94.10;;;;;;4975636;28;20057;-58
2022/02/27 09:03:16;;;;;;;1.92;1.17;;;16.30;93.60;;;;;;4975284;28;20049;-58
2022/02/27 09:05:44;;;;;;;2.28;1.27;;;16.40;93.40;;;;;;4977061;28;20046;-58
2022/02/27 09:08:12;;;;;;;2.22;1.20;;;16.40;93.10;;;;;;4961707;28;20394;-58
2022/02/27 09:10:40;;;;;;;1.95;1.15;;;16.10;93.10;;;;;;4974168;28;20043;-59
2022/02/27 09:13:10;;;;;;;3.65;1.80;;;15.80;93.60;;;;;;4970173;28;20098;-58
2022/02/27 09:15:39;;;;;;;9.85;6.38;;;15.50;94.10;;;;;;4973340;28;20049;-59
2022/02/27 09:18:09;;;;;;;9.30;5.85;;;15.50;94.50;;;;;;4972815;28;20090;-59
2022/02/27 09:20:37;;;;;;;8.82;5.05;;;15.60;94.30;;;;;;4971958;28;20058;-59
2022/02/27 09:23:07;;;;;;;10.48;4.95;;;15.80;94.00;;;;;;4963530;28;20528;-58
2022/02/27 09:25:35;;;;;;;5.15;3.58;;;16.10;93.80;;;;;;4973867;28;20062;-58
2022/02/27 09:28:24;;;;;;;6.03;3.55;;;16.20;93.70;;;;;;4971421;28;20026;-58
2022/02/27 09:30:51;;;;;;;5.15;2.70;;;16.00;93.70;;;;;;4930960;28;20410;-59
2022/02/27 09:33:19;;;;;;;6.45;2.67;;;15.70;93.80;;;;;;4973634;28;20043;-58
2022/02/27 09:35:47;;;;;;;7.32;2.88;;;15.50;94.60;;;;;;4973810;28;20043;-59
2022/02/27 09:38:14;;;;;;;5.57;2.83;;;15.50;95.10;;;;;;4974076;28;20066;-59
2022/02/27 09:40:42;;;;;;;8.93;4.40;;;15.30;94.50;;;;;;4973648;28;20049;-58
2022/02/27 09:43:12;;;;;;;7.00;5.53;;;15.30;94.40;;;;;;4974282;28;20133;-58
2022/02/27 09:45:40;;;;;;;4.05;2.50;;;15.00;94.20;;;;;;4973417;28;20044;-59
2022/02/27 09:48:08;;;;;;;2.20;1.50;;;14.80;94.60;;;;;;4971969;28;20106;-58
2022/02/27 09:50:36;;;;;;;2.42;1.45;;;14.60;94.70;;;;;;4971955;28;20498;-59
2022/02/27 09:53:04;;;;;;;6.63;3.15;;;14.20;94.60;;;;;;4970513;28;20043;-58
2022/02/27 09:55:31;;;;;;;12.35;5.68;;;13.90;95.10;;;;;;4971937;28;20465;-59
2022/02/27 09:57:59;;;;;;;6.68;4.38;;;13.60;95.70;;;;;;4973136;28;20366;-58
2022/02/27 10:00:27;;;;;;;5.50;2.15;;;13.40;96.20;;;;;;4972025;28;20090;-58
2022/02/27 10:03:26;;;;;;;2.65;1.88;;;13.10;96.50;;;;;;4973467;28;20054;-58
2022/02/27 10:06:08;;;;;;;5.93;2.78;;;12.90;97.20;;;;;;4974879;28;20058;-58
2022/02/27 10:08:47;;;;;;;8.38;3.72;;;12.80;97.80;;;;;;4972685;28;20046;-58
2022/02/27 10:11:18;;;;;;;4.30;2.95;;;12.70;98.50;;;;;;4974407;28;20039;-58
2022/02/27 10:13:52;;;;;;;8.60;4.10;;;12.60;98.90;;;;;;4972352;28;20115;-58
2022/02/27 10:16:23;;;;;;;11.30;4.78;;;12.40;99.20;;;;;;4973241;28;20493;-58
2022/02/27 10:18:54;;;;;;;5.93;3.60;;;12.40;99.50;;;;;;4972790;28;20047;-58
2022/02/27 10:21:25;;;;;;;4.03;1.95;;;12.30;99.90;;;;;;4972571;28;20047;-57
2022/02/27 10:24:17;;;;;;;4.32;2.78;;;12.30;99.90;;;;;;4968074;28;20039;-58
2022/02/27 10:26:48;;;;;;;3.38;2.25;;;12.30;99.90;;;;;;4969367;28;20039;-58
2022/02/27 10:29:16;;;;;;;2.92;1.75;;;12.40;99.90;;;;;;4973738;28;20093;-58
2022/02/27 10:31:49;;;;;;;3.65;1.88;;;12.50;99.90;;;;;;4973655;28;20052;-58
2022/02/27 10:34:29;;;;;;;3.60;2.20;;;12.60;99.90;;;;;;4970304;28;20510;-58
2022/02/27 10:37:29;;;;;;;2.58;1.50;;;12.80;99.90;;;;;;4971540;28;20043;-58
2022/02/27 10:40:00;;;;;;;2.25;1.50;;;12.90;99.90;;;;;;4964816;28;20406;-58
2022/02/27 10:42:30;;;;;;;2.88;1.70;;;13.10;99.80;;;;;;4972803;28;20422;-58
2022/02/27 10:45:00;;;;;;;2.20;1.70;;;13.20;99.00;;;;;;4971878;28;20051;-58
2022/02/27 10:47:30;;;;;;;3.50;2.40;;;13.20;98.30;;;;;;4976168;28;20071;-58
2022/02/27 10:50:00;;;;;;;3.50;2.20;;;13.20;98.00;;;;;;4973079;28;20124;-58
2022/02/27 10:52:31;;;;;;;3.55;1.95;;;13.20;98.20;;;;;;4972560;28;20505;-58
2022/02/27 10:55:01;;;;;;;3.13;2.35;;;13.20;98.50;;;;;;4966091;28;20043;-58
2022/02/27 10:57:34;;;;;;;2.72;1.70;;;13.40;98.60;;;;;;4973100;28;20086;-59
2022/02/27 11:00:15;;;;;;;2.20;1.60;;;13.60;98.90;;;;;;4972501;28;20038;-58
2022/02/27 11:02:43;;;;;;;2.35;1.52;;;13.90;98.40;;;;;;4972880;28;20105;-58
2022/02/27 11:05:13;;;;;;;2.65;1.70;;;14.10;98.10;;;;;;4972430;28;20149;-58
2022/02/27 11:07:44;;;;;;;5.03;1.67;;;14.30;97.30;;;;;;4971429;28;20043;-58
2022/02/27 11:10:14;;;;;;;2.47;1.60;;;14.60;96.40;;;;;;4971963;28;20038;-58
2022/02/27 11:12:42;;;;;;;2.00;1.33;;;14.70;96.20;;;;;;4968169;28;20039;-59
2022/02/27 11:15:14;;;;;;;3.40;1.70;;;14.70;96.00;;;;;;4961539;28;20046;-58
2022/02/27 11:17:43;;;;;;;2.92;2.05;;;14.50;96.10;;;;;;4970820;28;20144;-58
2022/02/27 11:20:15;;;;;;;4.22;2.90;;;14.50;96.50;;;;;;4973108;28;20047;-59
2022/02/27 11:22:43;;;;;;;5.07;3.67;;;14.50;96.30;;;;;;4970167;28;20058;-58
2022/02/27 11:25:11;;;;;;;3.85;2.70;;;14.40;96.30;;;;;;4965284;28;20055;-59
2022/02/27 11:27:49;;;;;;;7.32;2.83;;;14.30;96.30;;;;;;4973534;28;20118;-58
2022/02/27 11:30:22;;;;;;;2.90;1.90;;;14.30;96.40;;;;;;4974181;28;20062;-58
2022/02/27 11:32:57;;;;;;;3.28;1.92;;;14.10;96.30;;;;;;4973710;28;20055;-58
2022/02/27 11:35:53;;;;;;;4.68;1.90;;;14.10;96.20;;;;;;4974937;28;20079;-58
2022/02/27 11:38:30;;;;;;;3.05;1.95;;;14.20;96.40;;;;;;4973953;28;20051;-58
2022/02/27 11:41:12;;;;;;;2.78;1.63;;;14.20;96.10;;;;;;4974239;28;20046;-58
2022/02/27 11:43:57;;;;;;;3.42;1.95;;;14.40;95.90;;;;;;4974313;28;20055;-59
2022/02/27 11:46:35;;;;;;;4.68;2.25;;;14.70;96.70;;;;;;4973452;28;20497;-58
2022/02/27 11:49:19;;;;;;;4.93;2.35;;;14.90;96.60;;;;;;4973279;28;20070;-58
2022/02/27 11:52:02;;;;;;;5.07;1.42;;;14.80;94.80;;;;;;4973209;28;20449;-58
2022/02/27 11:54:58;;;;;;;4.55;2.30;;;14.90;94.90;;;;;;4972609;28;20043;-58
2022/02/27 11:57:30;;;;;;;3.13;2.17;;;14.90;94.80;;;;;;4973111;28;20047;-59
2022/02/27 12:00:09;;;;;;;2.95;1.95;;;14.80;94.00;;;;;;4974245;28;20047;-59
2022/02/27 12:02:45;;;;;;;3.33;1.70;;;14.60;94.20;;;;;;4974500;28;20038;-59
2022/02/27 12:05:14;;;;;;;;;;;14.50;94.20;;;;;;4957682;28;20101;-59
2022/02/27 12:08:00;;;;;;;1.85;1.30;;;14.50;93.90;;;;;;4973150;28;20297;-59
2022/02/27 12:10:32;;;;;;;2.65;2.17;;;14.50;93.60;;;;;;4972283;28;20043;-59
2022/02/27 12:13:00;;;;;;;5.13;2.45;;;14.50;93.90;;;;;;4974358;28;20043;-59
2022/02/27 12:15:36;;;;;;;2.53;1.35;;;14.60;93.40;;;;;;4974268;28;20491;-59
2022/02/27 12:18:03;;;;;;;2.90;1.73;;;14.60;93.00;;;;;;4973229;28;20045;-59
2022/02/27 12:20:40;;;;;;;3.85;2.30;;;14.40;93.90;;;;;;4974107;28;20055;-59
2022/02/27 12:23:27;;;;;;;3.50;2.17;;;14.20;94.30;;;;;;4972912;28;20046;-59
2022/02/27 12:25:57;;;;;;;4.13;1.73;;;14.00;94.60;;;;;;4940834;28;20062;-59
2022/02/27 12:28:49;;;;;;;2.55;1.55;;;13.90;94.60;;;;;;4973877;28;20047;-59
2022/02/27 12:31:22;;;;;;;4.18;1.63;;;13.90;94.80;;;;;;4973986;28;20043;-59
2022/02/27 12:33:50;;;;;;;3.40;2.63;;;14.00;94.80;;;;;;4974194;28;20513;-59
2022/02/27 12:36:27;;;;;;;3.08;1.38;;;14.10;94.70;;;;;;4974320;28;20034;-59
2022/02/27 12:38:59;;;;;;;2.35;1.40;;;14.20;94.50;;;;;;4960664;28;20142;-59
2022/02/27 12:41:29;;;;;;;3.38;1.60;;;14.20;93.90;;;;;;4976808;28;20129;-59
2022/02/27 12:43:57;;;;;;;2.55;1.25;;;14.20;93.70;;;;;;4976088;28;20073;-59
2022/02/27 12:46:28;;;;;;;2.17;1.48;;;14.20;93.60;;;;;;4976281;28;20387;-59
2022/02/27 12:51:42;;;;;;;4.50;1.17;;;14.10;93.80;;;;;;4976341;28;20047;-59
2022/02/27 12:54:15;;;;;;;3.03;1.52;;;14.20;94.40;;;;;;4977452;28;20130;-59
2022/02/27 12:56:56;;;;;;;2.42;1.63;;;14.20;95.00;;;;;;4975341;28;20398;-59
2022/02/27 12:59:28;;;;;;;2.55;1.20;;;14.30;94.80;;;;;;4975819;28;20054;-59
2022/02/27 13:01:57;;;;;;;4.82;1.60;;;14.30;94.90;;;;;;4977335;28;20049;-59
2022/02/27 13:04:30;;;;;;;2.55;1.52;;;14.10;95.20;;;;;;4960097;28;20101;-59
2022/02/27 13:07:07;;;;;;;2.88;2.00;;;14.00;94.30;;;;;;4976130;28;20049;-59